Perry, New York
Current Conditions -  °F | °C
As of 7:18 PM on Wednesday 26 Nov 2014 (Local Time) from KDSV Reporting Station
Light Snow Light Snow  
Wind Chill: 25°   Ceiling: 2000
Heat Index: 31°   Visibility: 9mi
Dew Point: 30°   Wind: 6mph
Humidity: 96%   Direction: 310°NW
Pressure: 30.04"   Gusts: NA
Location:  42.72°N, 78.01°W
Report Text: KDSV 270018Z AUTO 31005KT 9SM -SN FEW008 OVC020 M01/M01 A3004 RMK AO2 P0000 T10061011
Loading
Personal Weather Stations






























Interactive Weather Map New forecast layout! Learn more

10-Day Weather Forecast

Advertisements
Track Severe Weather on mobile